sensor_id;sensor_type;location;lat;lon;timestamp;temperature;humidity
13682;DHT22;6913;49.892;7.936;2023-03-12T00:00:16;-1.50;99.90
13682;DHT22;6913;49.892;7.936;2023-03-12T00:02:42;-1.50;99.90
13682;DHT22;6913;49.892;7.936;2023-03-12T00:05:10;-1.50;99.90
13682;DHT22;6913;49.892;7.936;2023-03-12T00:07:38;-1.50;99.90
13682;DHT22;6913;49.892;7.936;2023-03-12T00:10:06;-1.50;99.90
13682;DHT22;6913;49.892;7.936;2023-03-12T00:12:33;-1.50;99.90
13682;DHT22;6913;49.892;7.936;2023-03-12T00:15:00;-1.10;99.90
13682;DHT22;6913;49.892;7.936;2023-03-12T00:17:27;-1.50;99.90
13682;DHT22;6913;49.892;7.936;2023-03-12T00:19:54;-1.50;99.90
13682;DHT22;6913;49.892;7.936;2023-03-12T00:22:21;-1.50;99.90
13682;DHT22;6913;49.892;7.936;2023-03-12T00:24:52;-1.50;99.90
13682;DHT22;6913;49.892;7.936;2023-03-12T00:27:20;-1.50;99.90
13682;DHT22;6913;49.892;7.936;2023-03-12T00:29:46;-1.50;99.90
13682;DHT22;6913;49.892;7.936;2023-03-12T00:32:13;-1.50;99.90
13682;DHT22;6913;49.892;7.936;2023-03-12T00:34:40;-1.50;99.90
13682;DHT22;6913;49.892;7.936;2023-03-12T00:37:08;-1.50;99.90
13682;DHT22;6913;49.892;7.936;2023-03-12T00:39:35;-1.50;99.90
13682;DHT22;6913;49.892;7.936;2023-03-12T00:42:03;-1.50;99.90
13682;DHT22;6913;49.892;7.936;2023-03-12T00:44:30;-1.50;99.90
13682;DHT22;6913;49.892;7.936;2023-03-12T00:46:57;-1.50;99.90
13682;DHT22;6913;49.892;7.936;2023-03-12T00:49:24;-1.50;99.90
13682;DHT22;6913;49.892;7.936;2023-03-12T00:51:51;-1.50;99.90
13682;DHT22;6913;49.892;7.936;2023-03-12T00:54:18;-1.60;99.90
13682;DHT22;6913;49.892;7.936;2023-03-12T00:56:45;-1.60;99.90
13682;DHT22;6913;49.892;7.936;2023-03-12T00:59:14;-1.50;99.90
13682;DHT22;6913;49.892;7.936;2023-03-12T01:01:42;-1.50;99.90
13682;DHT22;6913;49.892;7.936;2023-03-12T01:04:09;-1.50;99.90
13682;DHT22;6913;49.892;7.936;2023-03-12T01:06:35;-1.50;99.90
13682;DHT22;6913;49.892;7.936;2023-03-12T01:09:04;-1.60;99.90
13682;DHT22;6913;49.892;7.936;2023-03-12T01:11:32;-1.80;99.90
13682;DHT22;6913;49.892;7.936;2023-03-12T01:13:59;-1.70;99.90
13682;DHT22;6913;49.892;7.936;2023-03-12T01:16:28;-1.70;99.90
13682;DHT22;6913;49.892;7.936;2023-03-12T01:18:55;-1.60;99.90
13682;DHT22;6913;49.892;7.936;2023-03-12T01:21:22;-1.60;99.90
13682;DHT22;6913;49.892;7.936;2023-03-12T01:23:49;-1.50;99.90
13682;DHT22;6913;49.892;7.936;2023-03-12T01:26:17;-1.50;99.90
13682;DHT22;6913;49.892;7.936;2023-03-12T01:28:44;-1.50;99.90
13682;DHT22;6913;49.892;7.936;2023-03-12T01:31:12;-1.50;99.90
13682;DHT22;6913;49.892;7.936;2023-03-12T01:33:41;-1.60;99.90
13682;DHT22;6913;49.892;7.936;2023-03-12T01:36:15;-1.70;99.90
13682;DHT22;6913;49.892;7.936;2023-03-12T01:38:42;-1.60;99.90
13682;DHT22;6913;49.892;7.936;2023-03-12T01:41:09;-1.60;99.90
13682;DHT22;6913;49.892;7.936;2023-03-12T01:43:37;-1.50;99.90
13682;DHT22;6913;49.892;7.936;2023-03-12T01:46:15;-1.40;99.90
13682;DHT22;6913;49.892;7.936;2023-03-12T01:48:50;-1.30;99.90
13682;DHT22;6913;49.892;7.936;2023-03-12T01:51:19;-1.30;99.90
13682;DHT22;6913;49.892;7.936;2023-03-12T01:53:49;-1.30;99.90
13682;DHT22;6913;49.892;7.936;2023-03-12T01:56:18;-1.30;99.90
13682;DHT22;6913;49.892;7.936;2023-03-12T01:58:49;-1.30;99.90
13682;DHT22;6913;49.892;7.936;2023-03-12T02:01:19;-1.30;99.90
13682;DHT22;6913;49.892;7.936;2023-03-12T02:03:50;-1.30;99.90
13682;DHT22;6913;49.892;7.936;2023-03-12T02:06:22;-1.20;99.90
13682;DHT22;6913;49.892;7.936;2023-03-12T02:08:51;-1.20;99.90
13682;DHT22;6913;49.892;7.936;2023-03-12T02:11:18;-1.20;99.90
13682;DHT22;6913;49.892;7.936;2023-03-12T02:13:45;-1.20;99.90
13682;DHT22;6913;49.892;7.936;2023-03-12T02:16:12;-1.10;99.90
13682;DHT22;6913;49.892;7.936;2023-03-12T02:18:39;-1.10;99.90
13682;DHT22;6913;49.892;7.936;2023-03-12T02:21:13;-1.10;99.90
13682;DHT22;6913;49.892;7.936;2023-03-12T02:23:45;-1.10;99.90
13682;DHT22;6913;49.892;7.936;2023-03-12T02:26:15;-1.00;99.90
13682;DHT22;6913;49.892;7.936;2023-03-12T02:28:43;-0.90;99.90
13682;DHT22;6913;49.892;7.936;2023-03-12T02:31:13;-1.00;99.90
13682;DHT22;6913;49.892;7.936;2023-03-12T02:33:41;-0.90;99.90
13682;DHT22;6913;49.892;7.936;2023-03-12T02:36:08;0.00;99.90
13682;DHT22;6913;49.892;7.936;2023-03-12T02:38:38;-1.00;99.90
13682;DHT22;6913;49.892;7.936;2023-03-12T02:41:16;-1.00;99.90
13682;DHT22;6913;49.892;7.936;2023-03-12T02:43:45;-1.00;99.90
13682;DHT22;6913;49.892;7.936;2023-03-12T02:46:13;-1.00;99.90
13682;DHT22;6913;49.892;7.936;2023-03-12T02:48:40;-1.00;99.90
13682;DHT22;6913;49.892;7.936;2023-03-12T02:51:07;-0.60;99.90
13682;DHT22;6913;49.892;7.936;2023-03-12T02:53:34;-0.30;99.90
13682;DHT22;6913;49.892;7.936;2023-03-12T02:56:01;-0.90;99.90
13682;DHT22;6913;49.892;7.936;2023-03-12T02:58:29;-0.80;99.90
13682;DHT22;6913;49.892;7.936;2023-03-12T03:00:56;0.40;99.90
13682;DHT22;6913;49.892;7.936;2023-03-12T03:03:23;-0.80;99.90
13682;DHT22;6913;49.892;7.936;2023-03-12T03:05:50;-0.70;99.90
13682;DHT22;6913;49.892;7.936;2023-03-12T03:08:17;-0.70;99.90
13682;DHT22;6913;49.892;7.936;2023-03-12T03:10:44;-0.70;99.90
13682;DHT22;6913;49.892;7.936;2023-03-12T03:13:11;-0.80;99.90
13682;DHT22;6913;49.892;7.936;2023-03-12T03:15:39;-0.80;99.90
13682;DHT22;6913;49.892;7.936;2023-03-12T03:18:06;-0.80;99.90
13682;DHT22;6913;49.892;7.936;2023-03-12T03:20:33;-0.70;99.90
13682;DHT22;6913;49.892;7.936;2023-03-12T03:23:00;-0.70;99.90
13682;DHT22;6913;49.892;7.936;2023-03-12T03:25:27;-0.80;99.90
13682;DHT22;6913;49.892;7.936;2023-03-12T03:27:54;-1.10;99.90
13682;DHT22;6913;49.892;7.936;2023-03-12T03:30:21;-1.30;99.90
13682;DHT22;6913;49.892;7.936;2023-03-12T03:32:49;-1.30;99.90
13682;DHT22;6913;49.892;7.936;2023-03-12T03:35:17;-1.40;99.90
13682;DHT22;6913;49.892;7.936;2023-03-12T03:37:44;-1.10;99.90
13682;DHT22;6913;49.892;7.936;2023-03-12T03:40:11;-1.40;99.90
13682;DHT22;6913;49.892;7.936;2023-03-12T03:42:38;-1.90;99.90
13682;DHT22;6913;49.892;7.936;2023-03-12T03:45:07;-1.30;99.90
13682;DHT22;6913;49.892;7.936;2023-03-12T03:47:35;-1.20;99.90
13682;DHT22;6913;49.892;7.936;2023-03-12T03:50:05;-1.30;99.90
13682;DHT22;6913;49.892;7.936;2023-03-12T03:52:32;-1.30;99.90
13682;DHT22;6913;49.892;7.936;2023-03-12T03:54:59;-1.30;99.90
13682;DHT22;6913;49.892;7.936;2023-03-12T03:57:26;-1.10;99.90
13682;DHT22;6913;49.892;7.936;2023-03-12T03:59:53;-1.00;99.90
13682;DHT22;6913;49.892;7.936;2023-03-12T04:02:21;-0.90;99.90
13682;DHT22;6913;49.892;7.936;2023-03-12T04:04:48;-0.80;99.90
13682;DHT22;6913;49.892;7.936;2023-03-12T04:07:16;-0.70;99.90
13682;DHT22;6913;49.892;7.936;2023-03-12T04:09:43;-0.60;99.90
13682;DHT22;6913;49.892;7.936;2023-03-12T04:12:10;-0.50;99.90
13682;DHT22;6913;49.892;7.936;2023-03-12T04:14:40;-0.50;99.90
13682;DHT22;6913;49.892;7.936;2023-03-12T04:17:09;-0.40;99.90
13682;DHT22;6913;49.892;7.936;2023-03-12T04:19:36;-0.70;99.90
13682;DHT22;6913;49.892;7.936;2023-03-12T04:22:03;-1.00;99.90
13682;DHT22;6913;49.892;7.936;2023-03-12T04:24:31;-1.10;99.90
13682;DHT22;6913;49.892;7.936;2023-03-12T04:26:58;-1.00;99.90
13682;DHT22;6913;49.892;7.936;2023-03-12T04:29:25;-1.00;99.90
13682;DHT22;6913;49.892;7.936;2023-03-12T04:31:52;-0.20;99.90
13682;DHT22;6913;49.892;7.936;2023-03-12T04:34:19;-0.90;99.90
13682;DHT22;6913;49.892;7.936;2023-03-12T04:36:46;-1.20;99.90
13682;DHT22;6913;49.892;7.936;2023-03-12T04:39:15;0.30;99.90
13682;DHT22;6913;49.892;7.936;2023-03-12T04:41:44;-0.70;99.90
13682;DHT22;6913;49.892;7.936;2023-03-12T04:44:11;-0.90;99.90
13682;DHT22;6913;49.892;7.936;2023-03-12T04:46:37;-0.80;99.90
13682;DHT22;6913;49.892;7.936;2023-03-12T04:49:04;-0.60;99.90
13682;DHT22;6913;49.892;7.936;2023-03-12T04:51:31;-0.60;99.90
13682;DHT22;6913;49.892;7.936;2023-03-12T04:53:58;-0.30;99.90
13682;DHT22;6913;49.892;7.936;2023-03-12T04:56:25;-0.30;99.90
13682;DHT22;6913;49.892;7.936;2023-03-12T04:58:54;-0.30;99.90
13682;DHT22;6913;49.892;7.936;2023-03-12T05:01:23;-0.20;99.90
13682;DHT22;6913;49.892;7.936;2023-03-12T05:03:52;-0.10;99.90
13682;DHT22;6913;49.892;7.936;2023-03-12T05:06:19;0.00;99.90
13682;DHT22;6913;49.892;7.936;2023-03-12T05:08:47;0.00;99.90
13682;DHT22;6913;49.892;7.936;2023-03-12T05:11:14;0.00;99.90
13682;DHT22;6913;49.892;7.936;2023-03-12T05:13:42;0.10;99.90
13682;DHT22;6913;49.892;7.936;2023-03-12T05:16:11;0.20;99.90
13682;DHT22;6913;49.892;7.936;2023-03-12T05:18:38;0.10;99.90
13682;DHT22;6913;49.892;7.936;2023-03-12T05:21:07;0.20;99.90
13682;DHT22;6913;49.892;7.936;2023-03-12T05:23:34;0.20;99.90
13682;DHT22;6913;49.892;7.936;2023-03-12T05:26:04;0.10;99.90
13682;DHT22;6913;49.892;7.936;2023-03-12T05:28:31;0.10;99.90
13682;DHT22;6913;49.892;7.936;2023-03-12T05:30:59;0.00;99.90
13682;DHT22;6913;49.892;7.936;2023-03-12T05:33:28;0.10;99.90
13682;DHT22;6913;49.892;7.936;2023-03-12T05:35:55;-0.20;99.90
13682;DHT22;6913;49.892;7.936;2023-03-12T05:38:22;0.20;99.90
13682;DHT22;6913;49.892;7.936;2023-03-12T05:40:53;1.40;99.90
13682;DHT22;6913;49.892;7.936;2023-03-12T05:43:20;0.20;99.90
13682;DHT22;6913;49.892;7.936;2023-03-12T05:45:47;0.30;99.90
13682;DHT22;6913;49.892;7.936;2023-03-12T05:48:14;0.30;99.90
13682;DHT22;6913;49.892;7.936;2023-03-12T05:50:43;0.50;99.90
13682;DHT22;6913;49.892;7.936;2023-03-12T05:53:11;0.40;99.90
13682;DHT22;6913;49.892;7.936;2023-03-12T05:55:38;0.40;99.90
13682;DHT22;6913;49.892;7.936;2023-03-12T05:58:06;0.40;99.90
13682;DHT22;6913;49.892;7.936;2023-03-12T06:00:34;0.30;99.90
13682;DHT22;6913;49.892;7.936;2023-03-12T06:03:03;0.30;99.90
13682;DHT22;6913;49.892;7.936;2023-03-12T06:05:30;0.80;99.90
13682;DHT22;6913;49.892;7.936;2023-03-12T06:07:59;0.40;99.90
13682;DHT22;6913;49.892;7.936;2023-03-12T06:10:26;0.50;99.90
13682;DHT22;6913;49.892;7.936;2023-03-12T06:12:53;0.50;99.90
13682;DHT22;6913;49.892;7.936;2023-03-12T06:15:20;0.50;99.90
13682;DHT22;6913;49.892;7.936;2023-03-12T06:17:46;0.60;99.90
13682;DHT22;6913;49.892;7.936;2023-03-12T06:20:14;0.50;99.90
13682;DHT22;6913;49.892;7.936;2023-03-12T06:22:41;0.40;99.90
13682;DHT22;6913;49.892;7.936;2023-03-12T06:25:09;0.40;99.90
13682;DHT22;6913;49.892;7.936;2023-03-12T06:27:36;0.80;99.90
13682;DHT22;6913;49.892;7.936;2023-03-12T06:30:03;0.50;99.90
13682;DHT22;6913;49.892;7.936;2023-03-12T06:32:30;0.50;99.90
13682;DHT22;6913;49.892;7.936;2023-03-12T06:34:58;0.90;99.90
13682;DHT22;6913;49.892;7.936;2023-03-12T06:37:26;0.90;99.90
13682;DHT22;6913;49.892;7.936;2023-03-12T06:39:53;0.60;99.90
13682;DHT22;6913;49.892;7.936;2023-03-12T06:42:21;0.60;99.90
13682;DHT22;6913;49.892;7.936;2023-03-12T06:44:48;0.20;99.90
13682;DHT22;6913;49.892;7.936;2023-03-12T06:47:15;0.10;99.90
13682;DHT22;6913;49.892;7.936;2023-03-12T06:49:42;0.20;99.90
13682;DHT22;6913;49.892;7.936;2023-03-12T06:52:09;0.10;99.90
13682;DHT22;6913;49.892;7.936;2023-03-12T06:54:36;0.20;99.90
13682;DHT22;6913;49.892;7.936;2023-03-12T06:57:03;0.10;99.90
13682;DHT22;6913;49.892;7.936;2023-03-12T06:59:31;-0.10;99.90
13682;DHT22;6913;49.892;7.936;2023-03-12T07:01:58;-0.20;99.90
13682;DHT22;6913;49.892;7.936;2023-03-12T07:04:25;-0.20;99.90
13682;DHT22;6913;49.892;7.936;2023-03-12T07:06:52;-0.10;99.90
13682;DHT22;6913;49.892;7.936;2023-03-12T07:09:19;0.00;99.90
13682;DHT22;6913;49.892;7.936;2023-03-12T07:11:46;0.10;99.90
13682;DHT22;6913;49.892;7.936;2023-03-12T07:14:13;0.30;99.90
13682;DHT22;6913;49.892;7.936;2023-03-12T07:16:41;0.40;99.90
13682;DHT22;6913;49.892;7.936;2023-03-12T07:19:08;0.50;99.90
13682;DHT22;6913;49.892;7.936;2023-03-12T07:21:35;0.60;99.90
13682;DHT22;6913;49.892;7.936;2023-03-12T07:24:01;0.50;99.90
13682;DHT22;6913;49.892;7.936;2023-03-12T07:26:32;0.50;99.90
13682;DHT22;6913;49.892;7.936;2023-03-12T07:28:59;0.50;99.90
13682;DHT22;6913;49.892;7.936;2023-03-12T07:31:26;0.50;99.90
13682;DHT22;6913;49.892;7.936;2023-03-12T07:33:54;0.60;99.90
13682;DHT22;6913;49.892;7.936;2023-03-12T07:36:21;0.70;99.90
13682;DHT22;6913;49.892;7.936;2023-03-12T07:38:48;0.80;99.90
13682;DHT22;6913;49.892;7.936;2023-03-12T07:41:15;0.80;99.90
13682;DHT22;6913;49.892;7.936;2023-03-12T07:43:42;0.80;99.90
13682;DHT22;6913;49.892;7.936;2023-03-12T07:46:09;0.70;99.90
13682;DHT22;6913;49.892;7.936;2023-03-12T07:48:36;0.80;99.90
13682;DHT22;6913;49.892;7.936;2023-03-12T07:51:05;0.80;99.90
13682;DHT22;6913;49.892;7.936;2023-03-12T07:53:32;0.90;99.90
13682;DHT22;6913;49.892;7.936;2023-03-12T07:55:58;0.90;99.90
13682;DHT22;6913;49.892;7.936;2023-03-12T07:58:25;1.20;99.90
13682;DHT22;6913;49.892;7.936;2023-03-12T08:00:54;0.90;99.90
13682;DHT22;6913;49.892;7.936;2023-03-12T08:03:21;0.90;99.90
13682;DHT22;6913;49.892;7.936;2023-03-12T08:05:55;0.90;99.90
13682;DHT22;6913;49.892;7.936;2023-03-12T08:08:24;0.90;99.90
13682;DHT22;6913;49.892;7.936;2023-03-12T08:10:51;1.00;99.90
13682;DHT22;6913;49.892;7.936;2023-03-12T08:13:23;1.10;99.90
13682;DHT22;6913;49.892;7.936;2023-03-12T08:18:59;1.00;99.90
13682;DHT22;6913;49.892;7.936;2023-03-12T08:21:26;1.10;99.90
13682;DHT22;6913;49.892;7.936;2023-03-12T08:23:55;1.00;99.90
13682;DHT22;6913;49.892;7.936;2023-03-12T08:26:26;0.70;99.90
13682;DHT22;6913;49.892;7.936;2023-03-12T08:28:58;1.10;99.90
13682;DHT22;6913;49.892;7.936;2023-03-12T08:31:26;1.30;99.90
13682;DHT22;6913;49.892;7.936;2023-03-12T08:33:56;1.40;99.90
13682;DHT22;6913;49.892;7.936;2023-03-12T08:36:41;1.50;99.90
13682;DHT22;6913;49.892;7.936;2023-03-12T08:39:29;1.60;99.90
13682;DHT22;6913;49.892;7.936;2023-03-12T08:42:15;1.70;99.90
13682;DHT22;6913;49.892;7.936;2023-03-12T08:45:08;1.80;99.90
13682;DHT22;6913;49.892;7.936;2023-03-12T08:47:40;1.70;99.90
13682;DHT22;6913;49.892;7.936;2023-03-12T08:50:12;1.80;99.90
13682;DHT22;6913;49.892;7.936;2023-03-12T08:52:40;2.40;99.90
13682;DHT22;6913;49.892;7.936;2023-03-12T08:55:11;2.00;99.90
13682;DHT22;6913;49.892;7.936;2023-03-12T08:57:47;1.70;99.90
13682;DHT22;6913;49.892;7.936;2023-03-12T09:00:23;1.70;99.90
13682;DHT22;6913;49.892;7.936;2023-03-12T09:02:50;1.90;99.90
13682;DHT22;6913;49.892;7.936;2023-03-12T09:05:18;1.40;99.90
13682;DHT22;6913;49.892;7.936;2023-03-12T09:07:52;1.10;99.90
13682;DHT22;6913;49.892;7.936;2023-03-12T09:10:22;1.40;99.90
13682;DHT22;6913;49.892;7.936;2023-03-12T09:12:51;1.00;99.90
13682;DHT22;6913;49.892;7.936;2023-03-12T09:15:19;1.10;99.90
13682;DHT22;6913;49.892;7.936;2023-03-12T09:17:47;1.40;99.90
13682;DHT22;6913;49.892;7.936;2023-03-12T09:20:21;1.60;99.90
13682;DHT22;6913;49.892;7.936;2023-03-12T09:22:51;2.10;99.90
13682;DHT22;6913;49.892;7.936;2023-03-12T09:25:22;2.10;99.90
13682;DHT22;6913;49.892;7.936;2023-03-12T09:27:54;2.00;99.90
13682;DHT22;6913;49.892;7.936;2023-03-12T09:30:25;2.50;99.90
13682;DHT22;6913;49.892;7.936;2023-03-12T09:32:59;2.10;99.90
13682;DHT22;6913;49.892;7.936;2023-03-12T09:35:29;2.80;99.90
13682;DHT22;6913;49.892;7.936;2023-03-12T09:38:08;2.80;99.90
13682;DHT22;6913;49.892;7.936;2023-03-12T09:40:42;3.40;99.90
13682;DHT22;6913;49.892;7.936;2023-03-12T09:43:20;2.50;99.90
13682;DHT22;6913;49.892;7.936;2023-03-12T09:46:01;2.30;99.90
13682;DHT22;6913;49.892;7.936;2023-03-12T09:48:32;2.60;99.90
13682;DHT22;6913;49.892;7.936;2023-03-12T09:51:03;2.80;99.90
13682;DHT22;6913;49.892;7.936;2023-03-12T09:53:38;2.30;99.90
13682;DHT22;6913;49.892;7.936;2023-03-12T09:56:20;2.60;99.90
13682;DHT22;6913;49.892;7.936;2023-03-12T09:58:48;2.50;99.90
13682;DHT22;6913;49.892;7.936;2023-03-12T10:01:31;2.60;99.90
13682;DHT22;6913;49.892;7.936;2023-03-12T10:07:01;2.50;99.90
13682;DHT22;6913;49.892;7.936;2023-03-12T10:09:46;2.40;99.90
13682;DHT22;6913;49.892;7.936;2023-03-12T10:12:25;2.70;99.90
13682;DHT22;6913;49.892;7.936;2023-03-12T10:15:05;3.30;99.90
13682;DHT22;6913;49.892;7.936;2023-03-12T10:17:44;3.00;99.90
13682;DHT22;6913;49.892;7.936;2023-03-12T10:20:42;3.00;99.90
13682;DHT22;6913;49.892;7.936;2023-03-12T10:23:24;3.20;99.90
13682;DHT22;6913;49.892;7.936;2023-03-12T10:26:09;3.60;99.90
13682;DHT22;6913;49.892;7.936;2023-03-12T10:28:43;3.00;99.90
13682;DHT22;6913;49.892;7.936;2023-03-12T10:31:17;3.50;99.90
13682;DHT22;6913;49.892;7.936;2023-03-12T10:33:51;3.60;99.90
13682;DHT22;6913;49.892;7.936;2023-03-12T10:36:21;3.80;99.90
13682;DHT22;6913;49.892;7.936;2023-03-12T10:38:50;3.50;99.90
13682;DHT22;6913;49.892;7.936;2023-03-12T10:41:20;3.70;99.90
13682;DHT22;6913;49.892;7.936;2023-03-12T10:43:52;3.70;99.90
13682;DHT22;6913;49.892;7.936;2023-03-12T10:46:44;3.60;99.90
13682;DHT22;6913;49.892;7.936;2023-03-12T10:49:30;4.10;99.90
13682;DHT22;6913;49.892;7.936;2023-03-12T10:52:00;4.00;99.90
13682;DHT22;6913;49.892;7.936;2023-03-12T10:54:34;4.80;99.90
13682;DHT22;6913;49.892;7.936;2023-03-12T10:57:01;5.30;99.90
13682;DHT22;6913;49.892;7.936;2023-03-12T10:59:32;6.30;99.90
13682;DHT22;6913;49.892;7.936;2023-03-12T11:02:00;5.80;99.90
13682;DHT22;6913;49.892;7.936;2023-03-12T11:04:29;6.90;99.90
13682;DHT22;6913;49.892;7.936;2023-03-12T11:07:18;7.00;99.90
13682;DHT22;6913;49.892;7.936;2023-03-12T11:09:51;7.50;99.90
13682;DHT22;6913;49.892;7.936;2023-03-12T11:12:29;7.80;99.90
13682;DHT22;6913;49.892;7.936;2023-03-12T11:15:00;8.50;99.90
13682;DHT22;6913;49.892;7.936;2023-03-12T11:17:43;8.40;99.90
13682;DHT22;6913;49.892;7.936;2023-03-12T11:20:27;8.00;99.90
13682;DHT22;6913;49.892;7.936;2023-03-12T11:22:54;7.30;99.90
13682;DHT22;6913;49.892;7.936;2023-03-12T11:25:23;7.10;99.90
13682;DHT22;6913;49.892;7.936;2023-03-12T11:27:52;7.10;99.90
13682;DHT22;6913;49.892;7.936;2023-03-12T11:30:25;6.80;99.90
13682;DHT22;6913;49.892;7.936;2023-03-12T11:32:55;6.90;99.90
13682;DHT22;6913;49.892;7.936;2023-03-12T11:35:37;7.00;99.90
13682;DHT22;6913;49.892;7.936;2023-03-12T11:38:14;7.30;99.90
13682;DHT22;6913;49.892;7.936;2023-03-12T11:40:59;8.10;99.90
13682;DHT22;6913;49.892;7.936;2023-03-12T11:43:37;7.30;99.90
13682;DHT22;6913;49.892;7.936;2023-03-12T11:46:22;7.50;99.90
13682;DHT22;6913;49.892;7.936;2023-03-12T11:49:00;7.90;99.90
13682;DHT22;6913;49.892;7.936;2023-03-12T11:51:39;8.10;99.90
13682;DHT22;6913;49.892;7.936;2023-03-12T11:57:06;8.00;99.90
13682;DHT22;6913;49.892;7.936;2023-03-12T11:59:52;8.20;99.90
13682;DHT22;6913;49.892;7.936;2023-03-12T12:02:40;8.50;99.90
13682;DHT22;6913;49.892;7.936;2023-03-12T12:05:26;8.40;99.90
13682;DHT22;6913;49.892;7.936;2023-03-12T12:08:05;7.90;99.90
13682;DHT22;6913;49.892;7.936;2023-03-12T12:10:43;8.10;99.90
13682;DHT22;6913;49.892;7.936;2023-03-12T12:13:17;8.60;99.90
13682;DHT22;6913;49.892;7.936;2023-03-12T12:15:53;8.50;99.90
13682;DHT22;6913;49.892;7.936;2023-03-12T12:18:39;8.40;99.90
13682;DHT22;6913;49.892;7.936;2023-03-12T12:21:24;8.00;99.90
13682;DHT22;6913;49.892;7.936;2023-03-12T12:23:58;7.90;99.90
13682;DHT22;6913;49.892;7.936;2023-03-12T12:26:32;7.80;99.90
13682;DHT22;6913;49.892;7.936;2023-03-12T12:29:18;7.60;99.90
13682;DHT22;6913;49.892;7.936;2023-03-12T12:31:50;7.50;99.90
13682;DHT22;6913;49.892;7.936;2023-03-12T12:34:40;7.50;99.90
13682;DHT22;6913;49.892;7.936;2023-03-12T12:37:21;7.60;99.90
13682;DHT22;6913;49.892;7.936;2023-03-12T12:39:53;7.60;99.90
13682;DHT22;6913;49.892;7.936;2023-03-12T12:42:26;7.70;99.90
13682;DHT22;6913;49.892;7.936;2023-03-12T12:44:57;7.50;99.90
13682;DHT22;6913;49.892;7.936;2023-03-12T12:47:33;7.50;99.90
13682;DHT22;6913;49.892;7.936;2023-03-12T12:50:03;7.10;99.90
13682;DHT22;6913;49.892;7.936;2023-03-12T12:52:30;7.10;99.90
13682;DHT22;6913;49.892;7.936;2023-03-12T12:55:01;7.20;99.90
13682;DHT22;6913;49.892;7.936;2023-03-12T12:57:37;7.30;99.90
13682;DHT22;6913;49.892;7.936;2023-03-12T13:00:18;7.20;99.90
13682;DHT22;6913;49.892;7.936;2023-03-12T13:02:47;7.50;99.90
13682;DHT22;6913;49.892;7.936;2023-03-12T13:05:21;7.50;99.90
13682;DHT22;6913;49.892;7.936;2023-03-12T13:07:51;7.50;99.90
13682;DHT22;6913;49.892;7.936;2023-03-12T13:10:40;7.70;99.90
13682;DHT22;6913;49.892;7.936;2023-03-12T13:13:12;8.20;99.90
13682;DHT22;6913;49.892;7.936;2023-03-12T13:15:43;8.10;99.90
13682;DHT22;6913;49.892;7.936;2023-03-12T13:18:22;8.30;99.90
13682;DHT22;6913;49.892;7.936;2023-03-12T13:21:20;8.40;99.90
13682;DHT22;6913;49.892;7.936;2023-03-12T13:23:54;8.60;99.90
13682;DHT22;6913;49.892;7.936;2023-03-12T13:26:28;9.10;99.90
13682;DHT22;6913;49.892;7.936;2023-03-12T13:28:59;9.30;99.90
13682;DHT22;6913;49.892;7.936;2023-03-12T13:31:34;9.90;99.90
13682;DHT22;6913;49.892;7.936;2023-03-12T13:34:31;10.50;99.90
13682;DHT22;6913;49.892;7.936;2023-03-12T13:37:19;10.90;99.90
13682;DHT22;6913;49.892;7.936;2023-03-12T13:39:46;11.00;99.90
13682;DHT22;6913;49.892;7.936;2023-03-12T13:42:35;11.10;99.90
13682;DHT22;6913;49.892;7.936;2023-03-12T13:45:22;11.20;99.90
13682;DHT22;6913;49.892;7.936;2023-03-12T13:47:52;11.10;99.90
13682;DHT22;6913;49.892;7.936;2023-03-12T13:50:21;11.10;99.90
13682;DHT22;6913;49.892;7.936;2023-03-12T13:52:59;11.00;99.90
13682;DHT22;6913;49.892;7.936;2023-03-12T13:55:28;10.90;99.90
13682;DHT22;6913;49.892;7.936;2023-03-12T13:57:58;10.80;99.90
13682;DHT22;6913;49.892;7.936;2023-03-12T14:00:26;10.60;99.90
13682;DHT22;6913;49.892;7.936;2023-03-12T14:02:57;10.50;99.90
13682;DHT22;6913;49.892;7.936;2023-03-12T14:05:26;10.40;99.90
13682;DHT22;6913;49.892;7.936;2023-03-12T14:11:11;10.30;99.90
13682;DHT22;6913;49.892;7.936;2023-03-12T14:14:00;10.40;99.90
13682;DHT22;6913;49.892;7.936;2023-03-12T14:16:33;10.60;99.90
13682;DHT22;6913;49.892;7.936;2023-03-12T14:19:03;11.00;99.90
13682;DHT22;6913;49.892;7.936;2023-03-12T14:21:34;11.20;99.90
13682;DHT22;6913;49.892;7.936;2023-03-12T14:24:06;11.50;99.90
13682;DHT22;6913;49.892;7.936;2023-03-12T14:26:36;11.70;99.90
13682;DHT22;6913;49.892;7.936;2023-03-12T14:29:07;11.90;99.90
13682;DHT22;6913;49.892;7.936;2023-03-12T14:31:36;12.10;99.90
13682;DHT22;6913;49.892;7.936;2023-03-12T14:34:07;12.10;99.90
13682;DHT22;6913;49.892;7.936;2023-03-12T14:36:37;12.20;99.90
13682;DHT22;6913;49.892;7.936;2023-03-12T14:39:19;12.20;99.90
13682;DHT22;6913;49.892;7.936;2023-03-12T14:41:52;12.10;99.90
13682;DHT22;6913;49.892;7.936;2023-03-12T14:44:22;12.00;99.90
13682;DHT22;6913;49.892;7.936;2023-03-12T14:46:55;12.10;99.90
13682;DHT22;6913;49.892;7.936;2023-03-12T14:49:22;12.10;99.90
13682;DHT22;6913;49.892;7.936;2023-03-12T14:51:49;12.20;99.90
13682;DHT22;6913;49.892;7.936;2023-03-12T14:54:18;12.00;99.90
13682;DHT22;6913;49.892;7.936;2023-03-12T14:56:48;11.80;99.90
13682;DHT22;6913;49.892;7.936;2023-03-12T14:59:24;11.80;99.90
13682;DHT22;6913;49.892;7.936;2023-03-12T15:01:51;11.70;99.90
13682;DHT22;6913;49.892;7.936;2023-03-12T15:04:21;11.70;99.90
13682;DHT22;6913;49.892;7.936;2023-03-12T15:06:51;11.70;99.90
13682;DHT22;6913;49.892;7.936;2023-03-12T15:09:23;11.70;99.90
13682;DHT22;6913;49.892;7.936;2023-03-12T15:11:52;11.60;99.90
13682;DHT22;6913;49.892;7.936;2023-03-12T15:14:20;11.60;99.90
13682;DHT22;6913;49.892;7.936;2023-03-12T15:16:48;11.50;99.90
13682;DHT22;6913;49.892;7.936;2023-03-12T15:19:19;11.50;99.90
13682;DHT22;6913;49.892;7.936;2023-03-12T15:21:47;11.40;99.90
13682;DHT22;6913;49.892;7.936;2023-03-12T15:24:15;11.40;99.90
13682;DHT22;6913;49.892;7.936;2023-03-12T15:26:43;11.10;99.90
13682;DHT22;6913;49.892;7.936;2023-03-12T15:29:21;11.00;99.90
13682;DHT22;6913;49.892;7.936;2023-03-12T15:31:53;10.90;99.90
13682;DHT22;6913;49.892;7.936;2023-03-12T15:34:28;11.00;99.90
13682;DHT22;6913;49.892;7.936;2023-03-12T15:36:57;10.90;99.90
13682;DHT22;6913;49.892;7.936;2023-03-12T15:39:26;11.10;99.90
13682;DHT22;6913;49.892;7.936;2023-03-12T15:41:59;11.40;99.90
13682;DHT22;6913;49.892;7.936;2023-03-12T15:44:29;11.60;99.90
13682;DHT22;6913;49.892;7.936;2023-03-12T15:47:03;11.80;99.90
13682;DHT22;6913;49.892;7.936;2023-03-12T15:49:33;12.00;99.90
13682;DHT22;6913;49.892;7.936;2023-03-12T15:52:04;12.10;99.90
13682;DHT22;6913;49.892;7.936;2023-03-12T15:54:31;12.20;99.90
13682;DHT22;6913;49.892;7.936;2023-03-12T15:57:18;12.20;99.90
13682;DHT22;6913;49.892;7.936;2023-03-12T16:02:37;12.20;99.90
13682;DHT22;6913;49.892;7.936;2023-03-12T16:05:04;12.20;99.90
13682;DHT22;6913;49.892;7.936;2023-03-12T16:07:31;12.20;99.90
13682;DHT22;6913;49.892;7.936;2023-03-12T16:09:58;12.10;99.90
13682;DHT22;6913;49.892;7.936;2023-03-12T16:12:26;12.20;99.90
13682;DHT22;6913;49.892;7.936;2023-03-12T16:14:53;12.20;99.90
13682;DHT22;6913;49.892;7.936;2023-03-12T16:17:21;12.10;99.90
13682;DHT22;6913;49.892;7.936;2023-03-12T16:19:48;12.20;99.90
13682;DHT22;6913;49.892;7.936;2023-03-12T16:22:15;12.20;99.90
13682;DHT22;6913;49.892;7.936;2023-03-12T16:24:44;12.20;99.90
13682;DHT22;6913;49.892;7.936;2023-03-12T16:27:13;12.10;99.90
13682;DHT22;6913;49.892;7.936;2023-03-12T16:29:42;12.10;99.90
13682;DHT22;6913;49.892;7.936;2023-03-12T16:32:10;12.10;99.90